Time;durP1;ratioP1;P1;durP2;ratioP2;P2;SDS_P1;SDS_P2;PMS_P1;PMS_P2;Temp;Humidity;BMP_temperature;BMP_pressure;BME280_temperature;BME280_humidity;BME280_pressure;Samples;Min_cycle;Max_cycle;Signal;HPM_P1;HPM_P2
2023/05/01 00:01:22;;;;;;;12.38;3.08;;;;;;;17.48;38.89;101065.25;5024971;23;20036;-46
2023/05/01 00:03:49;;;;;;;11.20;2.65;;;;;;;17.31;38.86;101072.53;5071353;28;20576;-45
2023/05/01 00:06:15;;;;;;;11.93;3.08;;;;;;;17.30;39.00;101057.38;5072362;28;20104;-48
2023/05/01 00:08:41;;;;;;;10.50;2.83;;;;;;;17.39;39.02;101064.03;5071471;28;20029;-46
2023/05/01 00:11:10;;;;;;;10.60;2.88;;;;;;;17.40;39.11;101054.84;5072538;28;20029;-48
2023/05/01 00:13:36;;;;;;;17.88;3.33;;;;;;;17.32;40.16;101052.53;5062202;28;20052;-45
2023/05/01 00:16:11;;;;;;;11.30;2.75;;;;;;;17.34;39.78;101040.41;5051546;28;20021;-48
2023/05/01 00:18:38;;;;;;;8.98;2.80;;;;;;;17.54;40.22;101050.72;5051633;28;20025;-46
2023/05/01 00:21:04;;;;;;;13.05;3.03;;;;;;;17.70;40.14;101038.25;5052036;28;20029;-45
2023/05/01 00:23:30;;;;;;;12.57;3.00;;;;;;;17.80;39.34;101045.75;5051301;28;20029;-49
2023/05/01 00:25:57;;;;;;;11.23;3.40;;;;;;;17.99;40.49;101047.09;5051296;28;20067;-48
2023/05/01 00:28:23;;;;;;;11.60;3.22;;;;;;;18.05;40.89;101056.13;5046988;28;20104;-46
2023/05/01 00:30:50;;;;;;;9.40;3.40;;;;;;;18.05;40.63;101051.53;5051729;28;20025;-47
2023/05/01 00:33:17;;;;;;;10.70;2.80;;;;;;;18.07;40.28;101071.03;5050980;28;20033;-50
2023/05/01 00:35:44;;;;;;;7.65;3.00;;;;;;;17.86;41.22;101048.25;5043501;28;20039;-45
2023/05/01 00:38:10;;;;;;;10.07;3.10;;;;;;;17.73;40.67;101062.16;5052062;28;20036;-48
2023/05/01 00:40:44;;;;;;;13.05;3.00;;;;;;;17.27;42.02;101049.78;5037606;28;20029;-50
2023/05/01 00:43:11;;;;;;;16.70;3.85;;;;;;;17.11;42.48;101037.88;5032328;28;20029;-48
2023/05/01 00:45:42;;;;;;;9.40;3.03;;;;;;;17.28;43.03;101046.81;5043919;28;20052;-45
2023/05/01 00:48:09;;;;;;;14.75;4.63;;;;;;;17.30;43.44;101060.09;5032181;28;20033;-47
2023/05/01 00:50:36;;;;;;;12.60;3.55;;;;;;;16.86;43.57;101062.56;5027125;28;20022;-49
2023/05/01 00:53:02;;;;;;;11.57;3.42;;;;;;;16.75;45.37;101044.50;5051956;28;20100;-47
2023/05/01 00:55:31;;;;;;;12.38;3.70;;;;;;;16.89;45.85;101046.69;5049578;28;20075;-49
2023/05/01 00:57:58;;;;;;;15.43;3.47;;;;;;;16.97;46.00;101037.34;5050456;28;20039;-46
2023/05/01 01:00:24;;;;;;;18.88;3.80;;;;;;;16.94;45.13;101045.97;5031609;28;20060;-47
2023/05/01 01:02:50;;;;;;;15.27;3.72;;;;;;;16.94;45.85;101040.56;5031328;28;20053;-46
2023/05/01 01:05:20;;;;;;;8.30;3.05;;;;;;;17.12;45.29;101031.38;5023268;28;20033;-46
2023/05/01 01:08:15;;;;;;;11.90;3.10;;;;;;;17.08;45.74;101032.94;5030643;28;20497;-47
2023/05/01 01:11:14;;;;;;;12.05;3.65;;;;;;;16.79;45.94;101034.88;4996609;28;20044;-46
2023/05/01 01:13:57;;;;;;;10.32;3.65;;;;;;;16.79;46.63;101032.97;5036503;28;20021;-46
2023/05/01 01:16:54;;;;;;;15.13;3.85;;;;;;;16.91;46.26;101030.22;5051133;28;20070;-48
2023/05/01 01:20:00;;;;;;;10.52;4.03;;;;;;;16.91;46.19;101022.09;5045897;28;20045;-46
2023/05/01 01:22:28;;;;;;;13.85;3.92;;;;;;;16.55;47.06;101026.81;5031818;28;20040;-47
2023/05/01 01:25:07;;;;;;;14.15;3.55;;;;;;;16.58;46.43;101031.72;5031549;28;20021;-48
2023/05/01 01:28:10;;;;;;;13.77;3.47;;;;;;;16.35;47.19;101027.22;5031176;28;20029;-48
2023/05/01 01:30:42;;;;;;;11.45;3.83;;;;;;;16.39;47.96;101032.16;5035685;28;20287;-46
2023/05/01 01:33:36;;;;;;;13.25;3.90;;;;;;;16.37;48.11;101035.91;5051613;28;20032;-48
2023/05/01 01:36:07;;;;;;;24.20;5.05;;;;;;;16.24;48.46;101021.88;5051139;28;20537;-48
2023/05/01 01:38:44;;;;;;;11.48;3.63;;;;;;;16.31;49.55;101027.94;5051494;28;20048;-49
2023/05/01 01:41:32;;;;;;;13.38;4.45;;;;;;;16.18;49.45;101017.44;5051394;28;20378;-46
2023/05/01 01:44:37;;;;;;;12.45;3.45;;;;;;;16.28;49.91;101014.94;5051569;28;20021;-47
2023/05/01 01:47:09;;;;;;;9.70;3.90;;;;;;;16.39;48.64;101019.47;5050547;28;20037;-48
2023/05/01 01:49:41;;;;;;;17.58;4.03;;;;;;;16.17;49.25;101016.59;5032137;28;20397;-49
2023/05/01 01:52:13;;;;;;;12.98;4.22;;;;;;;16.07;50.00;101006.41;5031000;28;20122;-48
2023/05/01 01:54:44;;;;;;;13.57;3.38;;;;;;;15.89;50.58;101009.28;5031414;28;20028;-49
2023/05/01 01:57:14;;;;;;;18.20;3.85;;;;;;;15.79;50.31;101006.34;5054496;23;20041;-50
2023/05/01 01:59:42;;;;;;;12.80;3.58;;;;;;;15.70;50.38;101018.53;5071228;28;20040;-48
2023/05/01 02:02:10;;;;;;;15.85;4.22;;;;;;;15.69;50.12;101017.72;5071045;28;20052;-46
2023/05/01 02:04:39;;;;;;;15.73;3.97;;;;;;;15.44;50.61;101020.63;5070408;28;20111;-49
2023/05/01 02:07:08;;;;;;;10.27;3.60;;;;;;;15.30;50.74;101017.31;5069814;28;20032;-49
2023/05/01 02:09:35;;;;;;;9.70;3.42;;;;;;;15.26;51.38;101023.41;5051200;28;20037;-49
2023/05/01 02:12:07;;;;;;;14.25;3.92;;;;;;;15.22;51.30;101006.91;5031298;28;20084;-49
2023/05/01 02:14:35;;;;;;;13.93;3.28;;;;;;;15.44;51.29;101009.03;5031173;28;20418;-50
2023/05/01 02:17:02;;;;;;;17.02;3.75;;;;;;;15.33;51.44;101013.34;5029580;28;20017;-50
2023/05/01 02:19:31;;;;;;;15.63;4.55;;;;;;;15.40;50.65;101002.44;5031560;28;20464;-51
2023/05/01 02:21:58;;;;;;;9.55;3.03;;;;;;;15.48;50.57;101012.88;5041485;28;20025;-50
2023/05/01 02:24:27;;;;;;;9.82;3.13;;;;;;;15.30;51.06;101003.84;5055402;28;20025;-50
2023/05/01 02:27:08;;;;;;;9.73;3.20;;;;;;;15.29;50.72;100999.50;5054425;28;20469;-49
2023/05/01 02:29:34;;;;;;;11.32;2.90;;;;;;;14.94;51.14;101006.72;5054883;28;20534;-49
2023/05/01 02:32:01;;;;;;;10.88;3.38;;;;;;;15.04;50.58;100990.78;5054696;28;20163;-50
2023/05/01 02:34:27;;;;;;;16.13;3.83;;;;;;;15.12;49.96;100995.03;5054434;28;20028;-46
2023/05/01 02:36:53;;;;;;;13.02;3.42;;;;;;;14.99;50.28;100996.03;5054142;28;20118;-49
2023/05/01 02:39:20;;;;;;;8.35;2.60;;;;;;;14.63;50.42;100991.63;5051976;28;20108;-46
2023/05/01 02:41:49;;;;;;;11.98;2.92;;;;;;;14.47;51.26;100987.69;5067615;28;20032;-49
2023/05/01 02:44:16;;;;;;;7.70;2.92;;;;;;;14.29;50.98;100980.44;5074191;28;20082;-49
2023/05/01 02:46:46;;;;;;;9.40;2.80;;;;;;;14.20;51.84;100971.03;5038824;28;20585;-45
2023/05/01 02:49:14;;;;;;;10.35;3.22;;;;;;;14.09;52.00;100975.31;5034383;28;20087;-49
2023/05/01 02:51:41;;;;;;;10.23;2.65;;;;;;;13.85;51.64;100981.59;5034395;28;20033;-48
2023/05/01 02:54:08;;;;;;;9.57;2.97;;;;;;;13.95;51.67;100974.66;5048968;28;20404;-49
2023/05/01 02:56:34;;;;;;;8.85;2.35;;;;;;;13.86;52.16;100973.31;5045667;28;20029;-46
2023/05/01 02:59:01;;;;;;;18.38;3.40;;;;;;;13.78;52.85;100978.19;5054564;28;20504;-50
2023/05/01 03:01:27;;;;;;;11.55;2.80;;;;;;;13.68;52.56;100974.13;5053008;28;20049;-50
2023/05/01 03:03:53;;;;;;;10.10;3.30;;;;;;;13.46;53.59;100984.47;5054203;28;20029;-46
2023/05/01 03:06:19;;;;;;;8.57;2.75;;;;;;;13.52;52.88;100990.00;5053819;28;20500;-47
2023/05/01 03:08:46;;;;;;;10.23;2.50;;;;;;;13.44;53.26;100988.44;5061868;28;20036;-50
2023/05/01 03:11:13;;;;;;;6.20;2.45;;;;;;;13.25;53.83;100986.75;5074110;28;20354;-50
2023/05/01 03:13:39;;;;;;;10.57;2.80;;;;;;;13.17;54.55;100983.25;5069370;28;20047;-48
2023/05/01 03:16:06;;;;;;;11.40;2.55;;;;;;;13.20;54.44;100990.06;5063042;28;20036;-50
2023/05/01 03:18:32;;;;;;;9.70;3.17;;;;;;;13.15;54.68;100982.63;5062997;28;20403;-51
2023/05/01 03:20:58;;;;;;;12.02;3.00;;;;;;;13.03;55.55;100981.72;5035413;28;20029;-52
2023/05/01 03:23:26;;;;;;;8.45;2.67;;;;;;;13.10;55.62;100984.34;5039794;28;20021;-50
2023/05/01 03:25:53;;;;;;;12.10;4.53;;;;;;;13.12;55.21;100984.97;5051219;28;20033;-50
2023/05/01 03:28:22;;;;;;;11.48;3.35;;;;;;;13.03;55.97;100988.94;5053659;28;20016;-49
2023/05/01 03:30:50;;;;;;;16.10;3.38;;;;;;;12.78;57.17;100986.25;5053377;28;20031;-49
2023/05/01 03:33:17;;;;;;;10.13;2.92;;;;;;;12.78;57.19;100987.06;5054521;28;20086;-48
2023/05/01 03:35:43;;;;;;;13.18;3.22;;;;;;;12.86;57.29;100981.44;5053292;28;20108;-49
2023/05/01 03:38:09;;;;;;;8.43;2.90;;;;;;;12.84;57.83;100988.88;5053408;28;20055;-48
2023/05/01 03:40:35;;;;;;;8.15;2.22;;;;;;;12.64;59.27;100988.19;5053016;28;20033;-49
2023/05/01 03:43:02;;;;;;;9.15;3.15;;;;;;;12.53;59.64;100992.38;5053293;28;20025;-48
2023/05/01 03:45:28;;;;;;;9.25;2.97;;;;;;;12.43;60.43;100992.81;5053101;28;20025;-48
2023/05/01 03:47:55;;;;;;;11.23;3.03;;;;;;;12.52;60.46;100997.97;5052910;28;20056;-50
2023/05/01 03:50:22;;;;;;;13.48;3.50;;;;;;;12.35;61.13;101000.31;5071244;28;20123;-49
2023/05/01 03:52:48;;;;;;;10.35;3.28;;;;;;;12.30;61.87;101003.63;5073113;28;20111;-47
2023/05/01 03:55:14;;;;;;;11.18;3.03;;;;;;;12.27;62.05;100996.03;5072806;28;20016;-50
2023/05/01 03:57:41;;;;;;;12.98;3.25;;;;;;;12.26;62.37;100997.03;5035681;28;20042;-49
2023/05/01 04:00:08;;;;;;;9.70;3.05;;;;;;;12.34;61.97;100999.50;5036111;28;20378;-48
2023/05/01 04:02:34;;;;;;;15.82;3.47;;;;;;;12.31;62.51;101005.28;5032908;28;20017;-48
2023/05/01 04:05:01;;;;;;;9.75;2.80;;;;;;;12.23;63.61;100994.81;5031787;28;20112;-47
2023/05/01 04:07:27;;;;;;;12.95;3.45;;;;;;;12.19;64.22;100990.88;5071263;28;20024;-49
2023/05/01 04:09:53;;;;;;;10.07;3.22;;;;;;;12.21;64.61;100988.81;5072484;28;20067;-49
2023/05/01 04:12:19;;;;;;;10.52;2.75;;;;;;;12.19;64.69;100988.22;5072857;28;20376;-47
2023/05/01 04:14:46;;;;;;;9.93;3.20;;;;;;;12.07;65.19;100982.69;5065515;28;20050;-48
2023/05/01 04:17:12;;;;;;;9.07;2.78;;;;;;;12.09;65.14;100988.66;5032433;28;20021;-47
2023/05/01 04:19:39;;;;;;;9.35;2.97;;;;;;;12.12;65.03;100992.78;5032459;28;20080;-49
2023/05/01 04:22:06;;;;;;;11.13;2.75;;;;;;;12.10;65.67;100993.00;5031235;28;20113;-50
2023/05/01 04:24:32;;;;;;;10.63;2.85;;;;;;;12.02;66.08;100998.59;5035219;28;20025;-49
2023/05/01 04:26:58;;;;;;;12.55;3.30;;;;;;;12.02;66.41;100995.91;5052108;28;20032;-48
2023/05/01 04:29:24;;;;;;;8.02;2.95;;;;;;;11.95;66.73;100984.38;5052266;28;20080;-47
2023/05/01 04:31:51;;;;;;;11.40;3.10;;;;;;;11.97;66.73;101000.25;5052258;28;20547;-48
2023/05/01 04:34:18;;;;;;;12.80;2.97;;;;;;;11.93;66.64;101010.56;5052699;28;20064;-46
2023/05/01 04:36:45;;;;;;;8.60;2.83;;;;;;;12.01;66.63;101005.00;5052067;28;20044;-48
2023/05/01 04:39:11;;;;;;;11.38;3.55;;;;;;;11.95;66.64;101000.47;5052338;28;20465;-48
2023/05/01 04:41:37;;;;;;;12.75;3.05;;;;;;;12.09;66.84;100995.88;5052234;28;20112;-48
2023/05/01 04:44:03;;;;;;;9.00;3.08;;;;;;;11.97;66.67;100998.41;5033743;28;20354;-47
2023/05/01 04:46:29;;;;;;;14.73;2.75;;;;;;;11.89;66.93;101001.31;5052140;28;20017;-50
2023/05/01 04:48:56;;;;;;;8.57;3.08;;;;;;;11.93;66.99;101002.53;5052027;28;20036;-49
2023/05/01 04:51:22;;;;;;;11.90;3.70;;;;;;;12.02;66.14;100990.53;5053694;28;20138;-49
2023/05/01 04:53:48;;;;;;;12.63;3.67;;;;;;;11.88;67.44;101005.00;5044378;28;20074;-49
2023/05/01 04:56:15;;;;;;;15.13;3.67;;;;;;;11.84;67.53;101001.94;5053952;28;20053;-49
2023/05/01 04:58:41;;;;;;;15.77;3.80;;;;;;;11.82;67.62;101000.50;5055970;28;20050;-48
2023/05/01 05:01:07;;;;;;;9.20;2.90;;;;;;;11.84;67.84;101009.19;5066894;28;20517;-46
2023/05/01 05:03:34;;;;;;;11.75;3.22;;;;;;;11.80;67.83;100992.63;5057403;28;20040;-49
2023/05/01 05:06:00;;;;;;;15.07;2.83;;;;;;;11.74;67.89;100993.47;5051335;28;20558;-49
2023/05/01 05:08:26;;;;;;;13.27;3.67;;;;;;;11.55;69.07;100989.81;5052112;28;20037;-48
2023/05/01 05:10:57;;;;;;;10.48;3.10;;;;;;;11.66;68.66;100996.41;5051636;28;20524;-46
2023/05/01 05:13:24;;;;;;;16.27;3.63;;;;;;;11.72;68.19;100986.69;5052190;28;20534;-48
2023/05/01 05:15:50;;;;;;;9.60;3.15;;;;;;;11.64;68.88;100993.91;5051304;28;20034;-47
2023/05/01 05:18:16;;;;;;;10.05;3.15;;;;;;;11.76;68.24;100994.09;5051555;28;20033;-45
2023/05/01 05:20:43;;;;;;;8.20;3.47;;;;;;;11.73;68.74;100985.66;5051710;28;20082;-45
2023/05/01 05:23:09;;;;;;;11.40;3.65;;;;;;;11.67;68.79;100971.22;5051764;28;20040;-45
2023/05/01 05:25:36;;;;;;;10.75;3.17;;;;;;;11.68;68.82;100983.59;5050899;28;20033;-45
2023/05/01 05:28:02;;;;;;;12.27;3.70;;;;;;;11.64;68.73;100971.63;5051749;28;20045;-47
2023/05/01 05:30:28;;;;;;;15.30;3.08;;;;;;;11.67;68.80;100991.84;5052169;28;20038;-49
2023/05/01 05:32:54;;;;;;;19.33;3.60;;;;;;;11.60;69.53;100981.13;5051347;28;20096;-49
2023/05/01 05:35:21;;;;;;;12.02;3.28;;;;;;;11.63;68.66;100978.84;5050970;28;20499;-46
2023/05/01 05:37:47;;;;;;;17.13;3.70;;;;;;;11.60;69.20;100986.47;5051397;28;20029;-49
2023/05/01 05:40:13;;;;;;;10.82;3.28;;;;;;;11.59;69.46;100982.97;5051360;28;20124;-47
2023/05/01 05:42:40;;;;;;;13.82;3.13;;;;;;;11.64;69.19;100985.03;5051784;28;20025;-45
2023/05/01 05:45:06;;;;;;;13.68;3.05;;;;;;;11.58;69.70;100992.06;5050917;28;20033;-49
2023/05/01 05:47:33;;;;;;;11.55;3.20;;;;;;;11.64;69.03;100991.22;5051870;28;20032;-49
2023/05/01 05:49:59;;;;;;;13.65;3.38;;;;;;;11.70;69.26;100983.38;5051305;28;20112;-49
2023/05/01 05:52:25;;;;;;;11.27;3.55;;;;;;;11.67;69.00;100999.91;5038408;28;20072;-49
2023/05/01 05:54:51;;;;;;;11.93;3.28;;;;;;;11.57;69.48;101000.31;5033429;28;20033;-48
2023/05/01 05:57:18;;;;;;;10.75;2.60;;;;;;;11.62;69.15;100995.97;5035060;28;20041;-49
2023/05/01 05:59:44;;;;;;;14.25;3.22;;;;;;;11.64;69.33;100993.91;5035470;28;20045;-49
2023/05/01 06:02:10;;;;;;;11.63;2.60;;;;;;;11.63;69.27;100989.59;5035399;28;20033;-49
2023/05/01 06:04:36;;;;;;;13.38;3.55;;;;;;;11.53;70.37;100991.88;5055994;28;20071;-46
2023/05/01 06:07:03;;;;;;;10.25;3.08;;;;;;;11.51;69.99;100998.47;5054495;28;20040;-45
2023/05/01 06:09:29;;;;;;;18.65;3.60;;;;;;;11.49;70.33;100992.47;5055285;28;20052;-48
2023/05/01 06:11:55;;;;;;;16.90;3.53;;;;;;;11.43;70.42;100993.31;5055163;28;20192;-47
2023/05/01 06:14:22;;;;;;;10.07;3.40;;;;;;;11.45;70.47;100986.72;5055072;28;20473;-46
2023/05/01 06:16:48;;;;;;;11.15;3.25;;;;;;;11.39;70.73;100982.22;5054684;28;20037;-49
2023/05/01 06:19:14;;;;;;;9.55;2.97;;;;;;;11.30;70.97;100992.31;5054799;28;20052;-45
2023/05/01 06:21:41;;;;;;;17.92;3.58;;;;;;;11.47;70.15;100984.66;5055422;28;20071;-48
2023/05/01 06:24:07;;;;;;;14.98;3.70;;;;;;;11.36;70.59;100983.44;5054949;28;20029;-48
2023/05/01 06:26:33;;;;;;;11.70;3.03;;;;;;;11.38;70.48;100983.22;5054486;28;20033;-45
2023/05/01 06:28:59;;;;;;;12.45;2.97;;;;;;;11.53;70.21;100981.13;5054369;28;20037;-45
2023/05/01 06:31:26;;;;;;;14.32;3.72;;;;;;;11.47;69.63;100976.63;5071499;28;20052;-49
2023/05/01 06:33:52;;;;;;;10.07;3.47;;;;;;;11.35;70.17;100973.75;5067279;28;20393;-46
2023/05/01 06:36:18;;;;;;;9.77;2.60;;;;;;;11.41;69.87;100971.28;5048055;28;20029;-47
2023/05/01 06:38:48;;;;;;;12.02;3.35;;;;;;;11.42;70.85;100968.38;5065496;28;20041;-45
2023/05/01 06:41:17;;;;;;;9.70;2.80;;;;;;;11.25;71.03;100967.97;5056565;28;20079;-45
2023/05/01 06:43:43;;;;;;;11.93;3.60;;;;;;;11.27;71.15;100973.97;5066074;28;20024;-45
2023/05/01 06:46:11;;;;;;;12.65;3.60;;;;;;;11.27;70.44;100971.28;5071534;28;20491;-46
2023/05/01 06:48:37;;;;;;;7.85;2.55;;;;;;;11.28;70.47;100972.94;5074319;28;20036;-48
2023/05/01 06:51:04;;;;;;;12.88;3.05;;;;;;;11.30;69.98;100970.88;5068902;28;20033;-48
2023/05/01 06:53:31;;;;;;;8.90;2.88;;;;;;;11.23;70.25;100969.22;5034850;28;20485;-45
2023/05/01 06:55:57;;;;;;;10.80;2.88;;;;;;;11.12;70.80;100968.00;5054412;28;20481;-48
2023/05/01 06:58:23;;;;;;;9.07;2.97;;;;;;;11.17;70.76;100962.84;5053997;28;20045;-49
2023/05/01 07:00:49;;;;;;;12.25;3.20;;;;;;;11.23;70.30;100970.06;5054214;28;20033;-46
2023/05/01 07:03:16;;;;;;;9.05;2.95;;;;;;;11.27;70.07;100965.94;5053941;28;20072;-47
2023/05/01 07:05:42;;;;;;;18.83;3.30;;;;;;;11.13;70.70;100972.31;5053075;28;20025;-46
2023/05/01 07:08:09;;;;;;;9.18;3.15;;;;;;;11.19;70.38;100962.63;5054050;28;20025;-49
2023/05/01 07:10:35;;;;;;;9.98;3.03;;;;;;;11.02;71.18;100972.94;5053826;28;20029;-48
2023/05/01 07:13:02;;;;;;;12.25;2.85;;;;;;;11.06;71.37;100961.59;5054209;28;20044;-46
2023/05/01 07:15:28;;;;;;;13.02;3.15;;;;;;;10.95;72.24;100961.41;5053819;28;20025;-47
2023/05/01 07:17:55;;;;;;;12.30;3.28;;;;;;;11.04;71.70;100958.28;5053708;28;20059;-45
2023/05/01 07:20:21;;;;;;;12.50;3.00;;;;;;;11.05;71.87;100956.47;5053739;28;20029;-48
2023/05/01 07:22:47;;;;;;;15.43;3.70;;;;;;;11.10;71.45;100946.78;5053659;28;20078;-48
2023/05/01 07:25:14;;;;;;;14.30;3.20;;;;;;;11.09;71.71;100947.78;5053351;28;20029;-47
2023/05/01 07:27:40;;;;;;;9.82;2.80;;;;;;;11.01;72.16;100948.00;5050915;28;20035;-48
2023/05/01 07:30:08;;;;;;;10.25;2.83;;;;;;;11.06;71.89;100947.41;5042768;28;20053;-46
2023/05/01 07:32:34;;;;;;;12.35;3.20;;;;;;;10.97;71.82;100949.44;5053492;28;20017;-46
2023/05/01 07:35:00;;;;;;;9.07;2.80;;;;;;;10.95;72.43;100950.69;5053360;28;20044;-49
2023/05/01 07:37:27;;;;;;;9.32;2.95;;;;;;;11.02;72.02;100946.16;5053502;28;20095;-47
2023/05/01 07:39:53;;;;;;;11.07;3.92;;;;;;;11.06;71.75;100944.72;5053549;28;20083;-48
2023/05/01 07:42:20;;;;;;;18.40;3.58;;;;;;;11.04;71.91;100947.56;5044828;28;20473;-47
2023/05/01 07:44:46;;;;;;;16.02;3.10;;;;;;;11.07;71.19;100949.03;5052461;28;20044;-48
2023/05/01 07:47:12;;;;;;;9.48;3.08;;;;;;;11.09;71.36;100942.44;5054124;28;20032;-45
2023/05/01 07:49:39;;;;;;;9.02;2.70;;;;;;;11.15;71.34;100942.63;5031821;28;20514;-46
2023/05/01 07:52:07;;;;;;;12.63;3.75;;;;;;;11.07;71.59;100944.50;5033175;28;20029;-47
2023/05/01 07:54:34;;;;;;;15.18;3.35;;;;;;;11.05;71.27;100951.94;5033263;28;20025;-46
2023/05/01 07:57:00;;;;;;;12.80;2.75;;;;;;;10.97;71.53;100944.09;5032590;28;20477;-48
2023/05/01 07:59:27;;;;;;;9.95;3.15;;;;;;;10.90;72.12;100950.47;5033294;28;20033;-44
2023/05/01 08:01:54;;;;;;;9.52;2.83;;;;;;;10.86;72.78;100946.56;5017280;28;20350;-46
2023/05/01 08:04:21;;;;;;;11.57;3.03;;;;;;;10.96;72.21;100941.63;5043633;28;20028;-46
2023/05/01 08:06:51;;;;;;;11.93;2.97;;;;;;;11.02;71.92;100940.78;5052651;28;20081;-49
2023/05/01 08:09:17;;;;;;;11.65;3.08;;;;;;;11.01;72.21;100934.63;5034426;28;20076;-49
2023/05/01 08:11:43;;;;;;;11.43;3.05;;;;;;;10.88;72.91;100920.38;5051879;23;20052;-45
2023/05/01 08:14:10;;;;;;;10.73;2.90;;;;;;;10.96;72.91;100925.56;5072769;28;20031;-47
2023/05/01 08:16:36;;;;;;;8.32;2.67;;;;;;;11.02;72.94;100935.44;5072483;28;20020;-49
2023/05/01 08:19:02;;;;;;;12.63;3.17;;;;;;;11.01;72.88;100929.25;5071418;28;20051;-47
2023/05/01 08:21:30;;;;;;;11.85;2.60;;;;;;;11.07;72.77;100928.44;5053824;28;20025;-46
2023/05/01 08:23:56;;;;;;;12.80;3.30;;;;;;;10.98;73.17;100915.44;5052192;28;20021;-48
2023/05/01 08:26:22;;;;;;;8.82;2.55;;;;;;;11.06;72.52;100920.59;5052140;28;20021;-49
2023/05/01 08:28:49;;;;;;;12.88;3.20;;;;;;;11.04;72.09;100911.94;5052364;28;20366;-47
2023/05/01 08:31:15;;;;;;;18.08;2.90;;;;;;;11.02;72.67;100900.63;5052548;28;20540;-46
2023/05/01 08:33:42;;;;;;;10.15;2.50;;;;;;;10.96;72.85;100901.44;5052134;28;20045;-50
2023/05/01 08:36:10;;;;;;;12.02;3.28;;;;;;;11.01;72.23;100897.13;5060655;28;20024;-49
2023/05/01 08:38:37;;;;;;;7.88;2.33;;;;;;;10.90;72.78;100895.06;5072115;28;20031;-47
2023/05/01 08:41:03;;;;;;;9.18;2.70;;;;;;;11.03;72.47;100883.50;5066645;28;20452;-47
2023/05/01 08:43:32;;;;;;;14.70;2.95;;;;;;;10.93;73.01;100885.78;5051256;28;20031;-49
2023/05/01 08:46:00;;;;;;;12.07;2.97;;;;;;;10.94;73.03;100884.75;5051937;28;20024;-48
2023/05/01 08:48:28;;;;;;;12.13;2.97;;;;;;;10.99;72.57;100887.63;5051971;28;20461;-48
2023/05/01 08:50:59;;;;;;;14.85;2.90;;;;;;;10.73;73.69;100881.28;5052131;28;20021;-46
2023/05/01 08:53:26;;;;;;;8.20;2.67;;;;;;;10.89;73.09;100879.22;5062900;28;20024;-48
2023/05/01 08:55:55;;;;;;;7.45;2.45;;;;;;;10.93;73.01;100878.56;5071797;28;20024;-49
2023/05/01 08:58:24;;;;;;;10.82;2.80;;;;;;;10.89;73.24;100877.34;5072056;28;20032;-47
2023/05/01 09:00:52;;;;;;;9.15;2.97;;;;;;;10.97;72.58;100873.63;5057626;28;20021;-46
2023/05/01 09:03:19;;;;;;;7.03;2.30;;;;;;;10.91;72.33;100866.44;5051845;28;20108;-48
2023/05/01 09:05:46;;;;;;;11.35;3.20;;;;;;;10.94;72.77;100874.03;5052334;28;20021;-49
2023/05/01 09:08:12;;;;;;;10.35;2.88;;;;;;;10.91;72.81;100864.56;5033881;28;20428;-47
2023/05/01 09:10:44;;;;;;;14.73;3.30;;;;;;;10.89;73.20;100871.19;5053478;28;20039;-46
2023/05/01 09:13:11;;;;;;;10.93;2.80;;;;;;;10.83;73.31;100862.94;5051288;28;20134;-48
2023/05/01 09:15:37;;;;;;;9.70;3.25;;;;;;;10.75;73.42;100865.81;5051387;28;20064;-48
2023/05/01 09:18:04;;;;;;;11.10;3.50;;;;;;;10.74;73.56;100864.16;5051523;28;20041;-46
2023/05/01 09:20:31;;;;;;;9.18;2.83;;;;;;;10.80;72.79;100857.97;5051625;28;20032;-48
2023/05/01 09:22:57;;;;;;;13.80;2.85;;;;;;;10.82;72.69;100850.56;5051515;28;20033;-47
2023/05/01 09:25:24;;;;;;;8.80;2.63;;;;;;;10.79;72.78;100855.53;5051245;28;20056;-46
2023/05/01 09:27:50;;;;;;;10.90;3.05;;;;;;;10.88;72.33;100853.44;5066248;28;20025;-45
2023/05/01 09:30:50;;;;;;;8.20;2.40;;;;;;;10.90;72.27;100848.72;5052775;28;20021;-45
2023/05/01 09:33:16;;;;;;;8.38;2.53;;;;;;;10.86;72.73;100850.16;5007934;28;20052;-49
2023/05/01 09:35:50;;;;;;;11.10;2.90;;;;;;;10.92;72.12;100850.16;5051148;28;20100;-50
2023/05/01 09:38:18;;;;;;;12.07;2.45;;;;;;;10.88;72.19;100850.75;5051434;28;20029;-49
2023/05/01 09:40:45;;;;;;;8.50;2.45;;;;;;;10.76;72.56;100850.56;5051423;28;20028;-49
2023/05/01 09:43:11;;;;;;;9.82;3.22;;;;;;;10.82;72.52;100858.59;5052126;28;20477;-48
2023/05/01 09:45:39;;;;;;;9.77;2.63;;;;;;;10.83;72.28;100844.19;5053091;28;20067;-46
2023/05/01 09:48:10;;;;;;;10.52;2.97;;;;;;;10.77;72.62;100837.00;5071485;28;20384;-45
2023/05/01 09:50:38;;;;;;;9.73;2.67;;;;;;;10.81;72.29;100843.56;5071878;28;20422;-45
2023/05/01 09:53:05;;;;;;;7.93;2.35;;;;;;;10.95;70.81;100822.97;5052697;28;20078;-49
2023/05/01 09:55:32;;;;;;;7.82;3.00;;;;;;;10.80;72.00;100830.38;5050729;28;20064;-48
2023/05/01 09:57:59;;;;;;;12.70;2.60;;;;;;;10.75;72.42;100825.66;5051275;28;20040;-48
2023/05/01 10:00:26;;;;;;;8.55;2.55;;;;;;;10.67;72.92;100825.88;5053848;28;20416;-50
2023/05/01 10:02:53;;;;;;;10.13;2.95;;;;;;;10.77;72.49;100826.28;5071271;28;20040;-46
2023/05/01 10:05:19;;;;;;;9.25;2.80;;;;;;;10.80;71.75;100820.50;5071121;28;20063;-49
2023/05/01 10:08:00;;;;;;;8.27;2.35;;;;;;;10.76;71.88;100821.94;5071106;28;20024;-48
2023/05/01 10:10:27;;;;;;;9.77;2.33;;;;;;;10.84;71.14;100826.28;5071226;28;20027;-48
2023/05/01 10:12:54;;;;;;;9.25;2.40;;;;;;;10.82;72.26;100818.44;5071297;28;20049;-49
2023/05/01 10:15:20;;;;;;;9.65;2.85;;;;;;;10.71;72.68;100816.38;5071550;28;20021;-48
2023/05/01 10:17:52;;;;;;;6.47;2.22;;;;;;;10.69;72.47;100815.78;5070836;28;20103;-46
2023/05/01 10:20:18;;;;;;;10.80;2.92;;;;;;;10.64;72.50;100823.59;5071131;28;20077;-48
2023/05/01 10:22:45;;;;;;;12.02;2.55;;;;;;;10.76;72.09;100827.28;5071244;28;20055;-46
2023/05/01 10:25:12;;;;;;;11.65;2.60;;;;;;;10.71;72.65;100829.75;5070781;28;20028;-47
2023/05/01 10:27:40;;;;;;;8.73;2.45;;;;;;;10.78;72.34;100825.25;5070900;28;20028;-48
2023/05/01 10:30:07;;;;;;;11.43;2.70;;;;;;;10.94;71.62;100820.47;5070973;28;20028;-46
2023/05/01 10:32:36;;;;;;;10.77;2.17;;;;;;;10.95;72.13;100822.97;5070952;28;20033;-47
2023/05/01 10:35:08;;;;;;;8.45;2.50;;;;;;;11.00;71.74;100816.97;5070580;28;20381;-48
2023/05/01 10:37:37;;;;;;;10.90;2.25;;;;;;;10.91;71.89;100815.53;5070783;28;20074;-49
2023/05/01 10:40:40;;;;;;;9.23;2.35;;;;;;;10.93;71.91;100825.00;5070745;28;20035;-45
2023/05/01 10:43:26;;;;;;;5.90;2.20;;;;;;;11.04;71.16;100818.19;5065376;28;20025;-48
2023/05/01 10:45:53;;;;;;;;;;;;;;;11.09;71.46;100821.88;5054162;28;20029;-47
2023/05/01 10:48:44;;;;;;;9.60;2.50;;;;;;;11.10;71.07;100815.53;5054289;28;19940;-45
2023/05/01 10:51:19;;;;;;;6.55;1.75;;;;;;;11.11;70.74;100802.94;5055065;28;20021;-49
2023/05/01 10:53:47;;;;;;;9.77;2.00;;;;;;;11.03;70.83;100808.50;5074296;28;20119;-45
2023/05/01 10:56:31;;;;;;;11.27;2.10;;;;;;;11.09;70.98;100792.41;5055880;28;20036;-48
2023/05/01 10:59:05;;;;;;;8.45;2.10;;;;;;;11.13;70.84;100803.53;5069364;28;20110;-46
2023/05/01 11:01:36;;;;;;;6.85;2.00;;;;;;;11.10;70.75;100806.63;5051784;28;20489;-45
2023/05/01 11:04:28;;;;;;;5.63;1.60;;;;;;;11.14;70.51;100801.69;5054173;28;20029;-49
2023/05/01 11:07:04;;;;;;;5.85;2.13;;;;;;;11.01;71.09;100807.91;5053611;28;20025;-47
2023/05/01 11:09:59;;;;;;;6.57;1.60;;;;;;;11.03;70.50;100808.50;5065519;28;20025;-48
2023/05/01 11:12:50;;;;;;;5.20;1.60;;;;;;;11.02;70.74;100812.22;5074020;28;20102;-45
2023/05/01 11:15:31;;;;;;;6.00;1.85;;;;;;;10.99;70.78;100802.78;5073596;28;20036;-46
2023/05/01 11:17:58;;;;;;;6.28;1.70;;;;;;;11.10;70.71;100801.28;5066913;28;20025;-47
2023/05/01 11:20:25;;;;;;;9.23;2.22;;;;;;;11.19;70.26;100800.03;5053836;28;20477;-46
2023/05/01 11:22:55;;;;;;;8.10;2.00;;;;;;;11.07;70.67;100802.53;5054015;28;20388;-48
2023/05/01 11:25:25;;;;;;;7.22;1.75;;;;;;;11.16;70.32;100796.94;5055241;28;20111;-49
2023/05/01 11:27:57;;;;;;;8.20;2.35;;;;;;;11.08;71.10;100795.31;5073496;28;20028;-46